createdAt,value
2019-01-02T00:02:45.096Z,95651.28
2019-01-02T00:06:09.308Z,95640.00
2019-01-02T00:09:52.549Z,95639.19
2019-01-02T00:13:16.752Z,95645.77
2019-01-02T00:17:00.012Z,95642.09
2019-01-02T00:20:24.252Z,95647.32
2019-01-02T00:23:48.549Z,95643.14
2019-01-02T00:27:07.121Z,95633.17
2019-01-02T00:30:12.171Z,95628.18
2019-01-02T00:33:17.241Z,95624.27
2019-01-02T00:36:21.855Z,95621.91
2019-01-02T00:39:26.476Z,95627.13
2019-01-02T00:42:50.677Z,95627.68
2019-01-02T00:46:14.912Z,95616.91
2019-01-02T00:49:38.878Z,95630.81
2019-01-02T00:53:04.679Z,95646.56
2019-01-02T00:56:30.369Z,95640.52
2019-01-02T00:59:56.052Z,95659.13
2019-01-02T01:03:21.729Z,95680.11
2019-01-02T01:06:47.715Z,95681.64
2019-01-02T01:10:34.647Z,95686.61
2019-01-02T01:13:58.790Z,95670.58
2019-01-02T01:17:22.750Z,95689.15
2019-01-02T01:20:46.758Z,95690.16
2019-01-02T01:24:10.745Z,95682.04
2019-01-02T01:27:27.370Z,95692.54
2019-01-02T01:30:51.781Z,95703.52
2019-01-02T01:34:17.477Z,95702.45
2019-01-02T01:38:02.235Z,95699.02
2019-01-02T01:41:26.199Z,95713.42
2019-01-02T01:45:10.917Z,95707.39
2019-01-02T01:48:34.867Z,95708.71
2019-01-02T01:51:59.089Z,95708.18
2019-01-02T01:55:23.384Z,95702.91
2019-01-02T01:58:49.156Z,95716.78
2019-01-02T02:02:32.140Z,95709.41
2019-01-02T02:05:56.109Z,95702.89
2019-01-02T02:09:21.838Z,95699.17
2019-01-02T02:13:06.589Z,95706.73
2019-01-02T02:16:49.584Z,95707.02
2019-01-02T02:20:13.574Z,95701.01
2019-01-02T02:23:37.540Z,95698.38
2019-01-02T02:26:54.900Z,95706.98
2019-01-02T02:29:59.515Z,95709.54
2019-01-02T02:33:04.443Z,95714.27
2019-01-02T02:36:09.066Z,95711.16
2019-01-02T02:39:33.183Z,95719.93
2019-01-02T02:42:58.867Z,95715.80
2019-01-02T02:46:24.559Z,95721.52
2019-01-02T02:49:48.518Z,95722.78
2019-01-02T02:53:12.494Z,95714.94
2019-01-02T02:56:38.185Z,95716.56
2019-01-02T03:04:07.881Z,95732.52
2019-01-02T03:07:33.586Z,95734.55
2019-01-02T03:10:39.924Z,95741.25
2019-01-02T03:14:04.166Z,95750.52
2019-01-02T03:21:18.363Z,95748.56
2019-01-02T03:24:42.341Z,95744.08
2019-01-02T03:28:01.150Z,95745.31
2019-01-02T03:34:55.124Z,95745.22
2019-01-02T03:38:19.221Z,95752.59
2019-01-02T03:41:43.184Z,95756.54
2019-01-02T03:45:27.932Z,95759.39
2019-01-02T03:52:21.885Z,95769.19
2019-01-02T03:55:45.911Z,95782.28
2019-01-02T03:59:29.161Z,95784.86
2019-01-02T04:02:53.131Z,95784.07
2019-01-02T04:06:17.085Z,95782.06
2019-01-02T04:09:41.055Z,95784.66
2019-01-02T04:16:34.903Z,95790.64
2019-01-02T04:19:58.942Z,95781.18
2019-01-02T04:23:22.910Z,95783.42
2019-01-02T04:26:39.444Z,95787.84
2019-01-02T04:34:12.376Z,95791.61
2019-01-02T04:37:55.380Z,95805.66
2019-01-02T04:41:19.574Z,95812.69
2019-01-02T04:44:43.827Z,95817.13
2019-01-02T04:48:08.089Z,95826.97
2019-01-02T04:55:14.985Z,95828.61
2019-01-02T04:58:39.307Z,95825.72
2019-01-02T05:02:03.579Z,95825.77
2019-01-02T05:05:46.845Z,95830.76
2019-01-02T05:09:11.120Z,95841.67
2019-01-02T05:12:35.065Z,95843.85
2019-01-02T05:16:18.177Z,95834.66
2019-01-02T05:19:42.435Z,95835.36
2019-01-02T05:23:06.400Z,95859.41
2019-01-02T05:26:23.332Z,95870.61
2019-01-02T05:29:47.278Z,95871.91
2019-01-02T05:33:11.487Z,95869.52
2019-01-02T05:36:35.488Z,95871.56
2019-01-02T05:39:59.433Z,95877.50
2019-01-02T05:43:23.398Z,95887.69
2019-01-02T05:46:47.597Z,95883.86
2019-01-02T05:50:11.575Z,95905.83
2019-01-02T05:53:35.520Z,95891.30
2019-01-02T05:56:59.484Z,95888.27
2019-01-02T06:00:23.474Z,95890.90
2019-01-02T06:03:47.435Z,95885.34
2019-01-02T06:07:11.653Z,95890.73
2019-01-02T06:10:35.624Z,95888.77
2019-01-02T06:13:59.831Z,95888.25
2019-01-02T06:17:23.806Z,95882.66
2019-01-02T06:20:47.795Z,95873.48
2019-01-02T06:24:12.016Z,95868.88
2019-01-02T06:27:28.792Z,95864.94
2019-01-02T06:30:52.790Z,95873.01
2019-01-02T06:34:16.785Z,95863.48
2019-01-02T06:37:40.756Z,95874.27
2019-01-02T06:41:04.723Z,95873.16
2019-01-02T06:44:28.979Z,95874.84
2019-01-02T06:47:53.254Z,95868.50
2019-01-02T06:51:17.229Z,95875.30
2019-01-02T06:54:41.193Z,95868.94
2019-01-02T06:58:05.176Z,95867.69
2019-01-02T07:04:58.917Z,95876.49
2019-01-02T07:08:22.908Z,95865.54
2019-01-02T07:11:46.889Z,95878.64
2019-01-02T07:15:10.956Z,95871.78
2019-01-02T07:18:35.212Z,95870.83
2019-01-02T07:21:59.239Z,95880.48
2019-01-02T07:25:23.196Z,95879.69
2019-01-02T07:28:40.410Z,95886.26
2019-01-02T07:32:04.718Z,95882.92
2019-01-02T07:36:07.268Z,95891.83
2019-01-02T07:40:09.803Z,95881.95
2019-01-02T07:44:11.781Z,95889.38
2019-01-02T07:47:56.545Z,95885.57
2019-01-02T07:51:59.093Z,95887.50
2019-01-02T07:55:43.953Z,95892.67
2019-01-02T07:59:46.796Z,95898.67
2019-01-02T08:03:50.716Z,95902.78
2019-01-02T08:11:44.022Z,95901.64
2019-01-02T08:15:46.552Z,95900.34
2019-01-02T08:19:31.305Z,95912.82
2019-01-02T08:23:16.331Z,95920.03
2019-01-02T08:26:37.558Z,95918.77
2019-01-02T08:30:40.152Z,95914.41
2019-01-02T08:34:25.005Z,95930.59
2019-01-02T08:38:10.121Z,95923.89
2019-01-02T08:42:12.656Z,95926.23
2019-01-02T08:46:15.298Z,95923.55
2019-01-02T08:50:17.801Z,95931.27
2019-01-02T08:58:13.772Z,95938.84
2019-01-02T09:02:16.319Z,95940.41
2019-01-02T09:06:18.857Z,95947.12
2019-01-02T09:10:21.403Z,95956.48
2019-01-02T09:14:06.150Z,95958.58
2019-01-02T09:18:08.711Z,95955.80
2019-01-02T09:21:53.468Z,95967.95
2019-01-02T09:25:56.029Z,95970.23
2019-01-02T09:29:58.613Z,95963.06
2019-01-02T09:33:43.803Z,95969.72
2019-01-02T09:37:28.802Z,95964.69
2019-01-02T09:41:13.563Z,95965.88
2019-01-02T09:44:58.574Z,95958.86
2019-01-02T09:49:01.838Z,95971.91
2019-01-02T09:52:46.588Z,95972.15
2019-01-02T09:56:49.133Z,95975.94
2019-01-02T10:00:34.291Z,95967.52
2019-01-02T10:04:36.823Z,95970.36
2019-01-02T10:08:21.847Z,95969.33
2019-01-02T10:12:06.651Z,95970.72
2019-01-02T10:16:09.225Z,95983.09
2019-01-02T10:19:54.009Z,95971.80
2019-01-02T10:23:38.822Z,95976.00
2019-01-02T10:26:53.349Z,95985.13
2019-01-02T10:30:32.106Z,95979.34
2019-01-02T10:34:14.101Z,95971.34
2019-01-02T10:37:59.122Z,95983.28
2019-01-02T10:42:01.935Z,95983.99
2019-01-02T10:46:04.725Z,95986.20
2019-01-02T10:50:08.911Z,95982.70
2019-01-02T10:54:11.474Z,95971.95
2019-01-02T10:57:56.512Z,95975.38
2019-01-02T11:01:41.246Z,95971.39
2019-01-02T11:05:26.071Z,95968.52
2019-01-02T11:09:28.738Z,95962.30
2019-01-02T11:13:13.585Z,95961.08
2019-01-02T11:16:58.357Z,95957.91
2019-01-02T11:28:24.367Z,95947.47
2019-01-02T11:32:09.371Z,95942.03
2019-01-02T11:36:11.912Z,95943.75
2019-01-02T11:39:56.734Z,95936.86
2019-01-02T11:43:59.344Z,95926.39
2019-01-02T11:51:06.485Z,95908.94
2019-01-02T11:54:30.703Z,95913.02
2019-01-02T12:01:37.836Z,95908.73
2019-01-02T12:05:02.079Z,95900.32
2019-01-02T12:08:26.075Z,95906.48
2019-01-02T12:11:50.037Z,95898.39
2019-01-02T12:15:14.012Z,95904.12
2019-01-02T12:18:38.240Z,95896.86
2019-01-02T12:21:42.852Z,95893.02
2019-01-02T12:25:06.990Z,95889.11
2019-01-02T12:28:24.302Z,95881.64
2019-01-02T12:31:48.265Z,95881.16
2019-01-02T12:35:12.409Z,95879.76
2019-01-02T12:38:56.525Z,95875.42
2019-01-02T12:42:20.490Z,95870.64
2019-01-02T12:49:14.399Z,95876.94
2019-01-02T12:52:57.561Z,95868.30
2019-01-02T13:00:32.100Z,95854.48
2019-01-02T13:04:17.134Z,95844.11
2019-01-02T13:08:19.692Z,95850.77
2019-01-02T13:12:22.237Z,95848.63
2019-01-02T13:16:07.285Z,95840.86
2019-01-02T13:20:09.860Z,95828.98
2019-01-02T13:23:54.618Z,95822.44
2019-01-02T13:27:14.140Z,95823.61
2019-01-02T13:30:59.302Z,95823.83
2019-01-02T13:34:44.340Z,95829.73
2019-01-02T13:38:51.269Z,95834.16
2019-01-02T13:42:53.829Z,95828.33
2019-01-02T13:46:38.577Z,95814.16
2019-01-02T13:50:41.111Z,95807.80
2019-01-02T13:54:24.279Z,95821.09
2019-01-02T13:57:48.493Z,95844.41
2019-01-02T14:01:12.490Z,95855.43
2019-01-02T14:04:37.008Z,95852.58
2019-01-02T14:15:19.468Z,95869.94
2019-01-02T14:22:12.866Z,95864.55
2019-01-02T14:25:37.068Z,95855.75
2019-01-02T14:28:54.202Z,95863.63
2019-01-02T14:32:37.522Z,95873.43
2019-01-02T14:36:01.505Z,95867.45
2019-01-02T14:42:57.041Z,95867.68
2019-01-02T14:46:40.090Z,95868.94
2019-01-02T14:53:54.012Z,95869.84
2019-01-02T14:57:18.040Z,95899.77
2019-01-02T15:00:42.061Z,95896.60
2019-01-02T15:04:06.264Z,95911.45
2019-01-02T15:07:11.130Z,95911.01
2019-01-02T15:10:17.619Z,95922.08
2019-01-02T15:13:22.234Z,95917.63
2019-01-02T15:16:27.112Z,95940.35
2019-01-02T15:19:31.728Z,95938.53
2019-01-02T15:22:36.379Z,95953.23
2019-01-02T15:25:53.654Z,95946.33
2019-01-02T15:29:17.924Z,95944.11
2019-01-02T15:32:42.109Z,95971.85
2019-01-02T15:36:06.086Z,95983.34
2019-01-02T15:39:10.850Z,95979.45
2019-01-02T15:42:15.523Z,95990.80
2019-01-02T15:45:20.448Z,96001.00
2019-01-02T15:48:25.321Z,96004.63
2019-01-02T15:51:30.194Z,96020.27
2019-01-02T15:54:35.151Z,96032.09
2019-01-02T15:57:39.837Z,96039.05
2019-01-02T16:00:44.745Z,96040.23
2019-01-02T16:03:49.406Z,96051.83
2019-01-02T16:06:54.111Z,96065.54
2019-01-02T16:09:59.155Z,96077.34
2019-01-02T16:13:03.774Z,96100.84
2019-01-02T16:16:08.461Z,96127.61
2019-01-02T16:19:13.099Z,96145.95
2019-01-02T16:22:17.755Z,96154.89
2019-01-02T16:25:41.730Z,96155.91
2019-01-02T16:28:58.501Z,96171.77
2019-01-02T16:35:32.199Z,96164.89
2019-01-02T16:38:36.850Z,96159.21
2019-01-02T16:41:41.737Z,96170.16
2019-01-02T16:44:46.547Z,96171.62
2019-01-02T16:48:10.974Z,96173.44
2019-01-02T16:51:35.196Z,96175.08
2019-01-02T16:54:59.469Z,96176.17
2019-01-02T16:58:04.382Z,96163.00
2019-01-02T17:01:09.044Z,96176.59
2019-01-02T17:04:13.919Z,96186.92
2019-01-02T17:07:18.541Z,96193.80
2019-01-02T17:10:42.576Z,96189.39
2019-01-02T17:14:06.877Z,96195.22
2019-01-02T17:17:30.900Z,96202.74
2019-01-02T17:24:24.375Z,96212.06
2019-01-02T17:27:28.994Z,96214.16
2019-01-02T17:30:33.684Z,96217.98
2019-01-02T17:33:38.563Z,96225.07
2019-01-02T17:36:43.344Z,96218.56
2019-01-02T17:39:48.244Z,96229.78
2019-01-02T17:42:52.872Z,96233.68
2019-01-02T17:45:57.499Z,96252.33
2019-01-02T17:49:02.325Z,96246.20
2019-01-02T17:52:07.130Z,96252.78
2019-01-02T17:55:11.775Z,96256.14
2019-01-02T17:58:16.671Z,96254.06
2019-01-02T18:01:21.325Z,96258.33
2019-01-02T18:04:27.654Z,96268.28
2019-01-02T18:07:32.558Z,96271.77
2019-01-02T18:10:37.588Z,96283.75
2019-01-02T18:13:42.217Z,96281.31
2019-01-02T18:16:47.088Z,96287.77
2019-01-02T18:19:51.784Z,96290.59
2019-01-02T18:22:56.747Z,96297.09
2019-01-02T18:26:01.436Z,96310.97
2019-01-02T18:29:06.327Z,96316.17
2019-01-02T18:32:10.953Z,96321.16
2019-01-02T18:35:15.577Z,96318.05
2019-01-02T18:38:20.515Z,96327.67
2019-01-02T18:41:25.304Z,96328.99
2019-01-02T18:44:29.929Z,96339.17
2019-01-02T18:47:34.815Z,96343.54
2019-01-02T18:50:39.675Z,96341.07
2019-01-02T18:53:44.302Z,96340.08
2019-01-02T18:56:49.192Z,96346.12
2019-01-02T18:59:53.807Z,96349.57
2019-01-02T19:02:58.687Z,96341.71
2019-01-02T19:06:03.544Z,96352.11
2019-01-02T19:09:08.623Z,96351.56
2019-01-02T19:12:13.501Z,96354.34
2019-01-02T19:15:18.179Z,96365.59
2019-01-02T19:18:23.066Z,96364.37
2019-01-02T19:21:27.691Z,96364.20
2019-01-02T19:24:32.627Z,96373.02
2019-01-02T19:27:37.503Z,96366.35
2019-01-02T19:30:42.365Z,96371.31
2019-01-02T19:33:47.009Z,96375.31
2019-01-02T19:36:51.803Z,96378.52
2019-01-02T19:39:56.442Z,96371.88
2019-01-02T19:43:01.339Z,96378.43
2019-01-02T19:46:06.041Z,96377.46
2019-01-02T19:49:10.758Z,96384.82
2019-01-02T19:52:15.659Z,96382.26
2019-01-02T19:55:20.440Z,96381.92
2019-01-02T19:58:25.096Z,96383.27
2019-01-02T20:02:08.096Z,96385.90
2019-01-02T20:05:32.071Z,96389.38
2019-01-02T20:08:56.151Z,96383.44
2019-01-02T20:12:20.115Z,96390.33
2019-01-02T20:15:44.108Z,96396.19
2019-01-02T20:19:08.074Z,96394.68
2019-01-02T20:22:12.943Z,96389.85
2019-01-02T20:25:17.581Z,96391.09
2019-01-02T20:28:34.584Z,96392.04
2019-01-02T20:32:04.114Z,96385.38
2019-01-02T20:35:24.546Z,96388.16
2019-01-02T20:39:07.976Z,96383.95
2019-01-02T20:42:32.265Z,96375.97
2019-01-02T20:46:15.385Z,96376.66
2019-01-02T20:49:39.359Z,96364.14
2019-01-02T20:53:22.643Z,96370.16
2019-01-02T20:56:46.620Z,96373.84
2019-01-02T21:00:31.420Z,96374.76
2019-01-02T21:07:20.287Z,96373.66
2019-01-02T21:10:44.273Z,96369.76
2019-01-02T21:14:08.319Z,96371.14
2019-01-02T21:17:32.271Z,96369.13
2019-01-02T21:20:56.621Z,96370.94
2019-01-02T21:24:20.895Z,96371.79
2019-01-02T21:27:38.186Z,96373.25
2019-01-02T21:31:02.506Z,96368.34
2019-01-02T21:34:26.528Z,96368.16
2019-01-02T21:37:50.911Z,96373.11
2019-01-02T21:41:15.141Z,96375.41
2019-01-02T21:44:39.107Z,96373.87
2019-01-02T21:48:03.557Z,96366.95
2019-01-02T21:51:27.568Z,96362.70
2019-01-02T21:54:51.572Z,96368.61
2019-01-02T21:58:15.199Z,96372.73
2019-01-02T22:01:39.357Z,96363.09
2019-01-02T22:05:03.464Z,96361.33
2019-01-02T22:08:27.414Z,96360.32
2019-01-02T22:11:51.444Z,96365.44
2019-01-02T22:15:15.441Z,96364.64
2019-01-02T22:18:39.542Z,96377.41
2019-01-02T22:22:03.510Z,96375.25
2019-01-02T22:25:27.477Z,96372.77
2019-01-02T22:28:45.061Z,96373.45
2019-01-02T22:32:28.078Z,96377.86
2019-01-02T22:35:52.047Z,96381.81
2019-01-02T22:39:16.015Z,96384.97
2019-01-02T22:42:40.217Z,96381.13
2019-01-02T22:46:04.214Z,96382.53
2019-01-02T22:49:28.165Z,96389.28
2019-01-02T22:52:52.146Z,96393.53
2019-01-02T22:56:16.428Z,96399.67
2019-01-02T22:59:40.703Z,96401.98
2019-01-02T23:03:24.439Z,96403.47
2019-01-02T23:10:07.647Z,96408.61
2019-01-02T23:13:31.738Z,96401.22
2019-01-02T23:17:14.728Z,96403.56
2019-01-02T23:20:57.972Z,96401.16
2019-01-02T23:24:40.974Z,96407.69
2019-01-02T23:27:59.557Z,96412.45
2019-01-02T23:31:42.840Z,96418.32
2019-01-02T23:35:26.022Z,96419.32
2019-01-02T23:39:09.041Z,96417.05
2019-01-02T23:42:52.285Z,96428.25
2019-01-02T23:46:35.525Z,96426.33
2019-01-02T23:49:59.438Z,96427.70
2019-01-02T23:53:42.443Z,96427.00
2019-01-02T23:57:06.203Z,96426.95
